Time;durP1;ratioP1;P1;durP2;ratioP2;P2;SDS_P1;SDS_P2;PMS_P1;PMS_P2;Temp;Humidity;BMP_temperature;BMP_pressure;BME280_temperature;BME280_humidity;BME280_pressure;Samples;Min_cycle;Max_cycle;Signal;HPM_P1;HPM_P2
2022/02/07 00:00:45;;;;;;;13.57;2.20;;;5.00;99.90;;;;;;4143410;28;20405;-66
2022/02/07 00:03:06;;;;;;;8.32;2.40;;;5.10;99.90;;;;;;4137620;28;20435;-66
2022/02/07 00:05:06;;;;;;;10.77;2.40;;;5.00;99.90;;;;;;4137681;28;20049;-67
2022/02/07 00:07:09;;;;;;;3.70;1.55;;;5.00;99.90;;;;;;4139895;28;20141;-65
2022/02/07 00:09:10;;;;;;;5.30;1.20;;;4.90;99.90;;;;;;4141293;28;20429;-65
2022/02/07 00:11:14;;;;;;;5.78;1.27;;;4.90;99.90;;;;;;4139550;28;20037;-65
2022/02/07 00:13:15;;;;;;;4.38;1.00;;;4.80;99.90;;;;;;4140103;28;20061;-65
2022/02/07 00:15:17;;;;;;;5.20;1.38;;;4.80;99.90;;;;;;4138625;28;20034;-66
2022/02/07 00:17:17;;;;;;;3.10;0.98;;;4.80;99.90;;;;;;4137186;28;20133;-65
2022/02/07 00:19:23;;;;;;;7.72;1.13;;;4.70;99.90;;;;;;4143520;28;20152;-65
2022/02/07 00:21:23;;;;;;;7.20;1.60;;;4.70;99.90;;;;;;4140675;28;20053;-65
2022/02/07 00:23:26;;;;;;;8.02;1.67;;;4.60;99.90;;;;;;4139905;28;20044;-66
2022/02/07 00:25:27;;;;;;;10.70;1.40;;;4.60;99.90;;;;;;4138642;28;20046;-65
2022/02/07 00:27:28;;;;;;;7.10;1.60;;;4.60;99.90;;;;;;4142055;28;20077;-65
2022/02/07 00:29:28;;;;;;;9.95;1.60;;;4.50;99.90;;;;;;4139455;28;20038;-65
2022/02/07 00:31:29;;;;;;;11.68;2.00;;;4.60;99.90;;;;;;4138090;28;20026;-65
2022/02/07 00:33:30;;;;;;;7.55;1.35;;;4.60;99.90;;;;;;4137254;28;20034;-65
2022/02/07 00:35:30;;;;;;;10.85;1.48;;;4.60;99.90;;;;;;4135391;28;20034;-65
2022/02/07 00:37:33;;;;;;;9.13;1.63;;;4.60;99.90;;;;;;4138402;28;20038;-65
2022/02/07 00:39:43;;;;;;;8.65;1.45;;;4.60;99.90;;;;;;4136674;28;20488;-65
2022/02/07 00:42:00;;;;;;;9.23;1.77;;;4.60;99.90;;;;;;4136178;28;20437;-65
2022/02/07 00:44:10;;;;;;;13.55;1.90;;;4.60;99.90;;;;;;4138870;28;20046;-65
2022/02/07 00:46:13;;;;;;;14.70;2.38;;;4.60;99.90;;;;;;4136046;28;20041;-65
2022/02/07 00:48:13;;;;;;;12.68;2.17;;;4.60;99.90;;;;;;4139562;28;20430;-65
2022/02/07 00:50:14;;;;;;;11.90;2.17;;;4.60;99.90;;;;;;4140381;28;20042;-66
2022/02/07 00:52:15;;;;;;;11.00;2.53;;;4.60;99.90;;;;;;4139137;28;20490;-65
2022/02/07 00:54:16;;;;;;;13.57;2.40;;;4.60;99.90;;;;;;4141231;28;20401;-65
2022/02/07 00:56:16;;;;;;;10.80;2.08;;;4.60;99.90;;;;;;4121001;28;20039;-65
2022/02/07 00:58:17;;;;;;;9.20;2.00;;;4.60;99.90;;;;;;4141477;28;20037;-65
2022/02/07 01:00:17;;;;;;;12.23;2.28;;;4.60;99.90;;;;;;4143862;28;20033;-65
2022/02/07 01:02:18;;;;;;;10.35;2.13;;;4.60;99.90;;;;;;4142251;28;20469;-65
2022/02/07 01:04:19;;;;;;;13.65;2.20;;;4.60;99.90;;;;;;4137938;28;20132;-65
2022/02/07 01:06:20;;;;;;;11.32;2.13;;;4.60;99.90;;;;;;4139596;28;20042;-65
2022/02/07 01:08:28;;;;;;;8.20;1.83;;;4.50;99.90;;;;;;4144473;28;20041;-65
2022/02/07 01:10:40;;;;;;;13.07;3.20;;;4.60;99.90;;;;;;4141284;28;20038;-65
2022/02/07 01:13:04;;;;;;;8.85;1.67;;;4.60;99.90;;;;;;4133364;28;20392;-65
2022/02/07 01:18:13;;;;;;;22.40;2.72;;;4.60;99.90;;;;;;4138410;28;20481;-65
2022/02/07 01:56:10;;;;;;;14.35;3.03;;;4.80;99.90;;;;;;4125705;28;20373;-65
2022/02/07 01:58:12;;;;;;;13.48;2.40;;;4.70;99.90;;;;;;4139320;28;20053;-65
2022/02/07 02:00:14;;;;;;;12.57;2.25;;;4.60;99.90;;;;;;4138801;28;20039;-65
2022/02/07 02:02:14;;;;;;;13.95;2.90;;;4.60;99.90;;;;;;4136968;28;20026;-65
2022/02/07 02:04:15;;;;;;;14.32;2.70;;;4.50;99.90;;;;;;4139412;28;20041;-65
2022/02/07 02:06:16;;;;;;;24.48;3.13;;;4.40;99.90;;;;;;4138316;28;20034;-65
2022/02/07 02:08:16;;;;;;;16.33;2.75;;;4.40;99.90;;;;;;4136446;28;20030;-65
2022/02/07 02:10:17;;;;;;;14.43;2.60;;;4.40;99.90;;;;;;4136534;28;20041;-66
2022/02/07 02:12:18;;;;;;;16.15;2.40;;;4.30;99.90;;;;;;4135692;28;20046;-65
2022/02/07 02:16:37;;;;;;;12.82;1.95;;;4.30;99.90;;;;;;4139334;28;20038;-66
2022/02/07 02:37:21;;;;;;;11.43;1.75;;;4.20;99.90;;;;;;4144497;28;20034;-65
2022/02/07 02:46:01;;;;;;;9.52;1.98;;;4.10;99.90;;;;;;4143209;28;20468;-65
2022/02/07 02:48:08;;;;;;;5.90;1.45;;;4.10;99.90;;;;;;4145419;28;20100;-65
2022/02/07 02:50:27;;;;;;;8.52;1.40;;;4.20;99.90;;;;;;4142535;28;20036;-66
2022/02/07 02:52:27;;;;;;;8.35;1.75;;;4.10;99.90;;;;;;4144755;28;20496;-65
2022/02/07 02:54:28;;;;;;;11.20;1.98;;;4.10;99.90;;;;;;4139817;28;20058;-65
2022/02/07 02:56:28;;;;;;;9.82;1.52;;;4.10;99.90;;;;;;4143926;28;20128;-65
2022/02/07 02:58:29;;;;;;;13.23;1.40;;;4.10;99.90;;;;;;4141012;28;20034;-65
2022/02/07 03:00:31;;;;;;;2.95;1.00;;;4.10;99.90;;;;;;4143404;28;20042;-65
2022/02/07 03:02:31;;;;;;;4.28;1.27;;;4.20;99.90;;;;;;4144661;28;20040;-65
2022/02/07 03:04:32;;;;;;;7.53;1.23;;;4.10;99.90;;;;;;4144712;28;20065;-65
2022/02/07 03:06:34;;;;;;;6.68;1.15;;;4.10;99.90;;;;;;4140339;28;20042;-65
2022/02/07 03:08:35;;;;;;;6.72;1.45;;;4.20;99.90;;;;;;4139793;28;20504;-66
2022/02/07 03:12:58;;;;;;;8.88;1.80;;;4.20;99.90;;;;;;4145363;28;20041;-65
2022/02/07 03:16:36;;;;;;;8.32;1.77;;;4.20;99.90;;;;;;4136350;28;20041;-65
2022/02/07 03:17:19;;;;;;;10.55;1.90;;;4.20;99.90;;;;;;4136588;28;20040;-65
2022/02/07 03:19:20;;;;;;;9.00;1.20;;;4.20;99.90;;;;;;4136916;28;20046;-65
2022/02/07 03:21:21;;;;;;;10.13;1.90;;;4.10;99.90;;;;;;4139332;28;20041;-65
2022/02/07 03:23:22;;;;;;;7.40;1.42;;;4.00;99.90;;;;;;4134575;28;20386;-65
2022/02/07 03:25:22;;;;;;;6.90;1.48;;;4.00;99.90;;;;;;4140669;28;20074;-65
2022/02/07 03:27:23;;;;;;;14.63;2.50;;;4.10;99.90;;;;;;4141506;28;20046;-65
2022/02/07 03:29:24;;;;;;;12.65;2.25;;;4.10;99.90;;;;;;4140977;28;20393;-65
2022/02/07 03:31:24;;;;;;;17.33;2.33;;;4.10;99.90;;;;;;4138298;28;20053;-65
2022/02/07 03:33:25;;;;;;;15.75;2.60;;;4.10;99.90;;;;;;4142201;28;20125;-65
2022/02/07 03:35:26;;;;;;;14.32;2.33;;;4.10;99.90;;;;;;4140272;28;20414;-65
2022/02/07 03:37:27;;;;;;;17.63;2.40;;;4.20;99.90;;;;;;4145269;28;20038;-65
2022/02/07 03:39:27;;;;;;;18.17;2.65;;;4.20;99.90;;;;;;4141043;28;20050;-65
2022/02/07 03:41:28;;;;;;;14.48;2.65;;;4.20;99.90;;;;;;4141439;28;20041;-65
2022/02/07 03:43:29;;;;;;;16.27;2.75;;;4.20;99.90;;;;;;4141153;28;20065;-65
2022/02/07 03:45:30;;;;;;;15.00;2.40;;;4.20;99.90;;;;;;4140423;28;20057;-65
2022/02/07 03:47:30;;;;;;;20.60;2.97;;;4.30;99.90;;;;;;4141554;28;20042;-65
2022/02/07 03:49:31;;;;;;;9.07;2.03;;;4.30;99.90;;;;;;4140833;28;20061;-65
2022/02/07 03:51:31;;;;;;;11.18;2.10;;;4.30;99.90;;;;;;4136053;28;20034;-65
2022/02/07 03:53:32;;;;;;;15.02;2.78;;;4.30;99.90;;;;;;4139030;28;20121;-65
2022/02/07 03:55:33;;;;;;;18.50;2.75;;;4.30;99.90;;;;;;4141997;28;20054;-65
2022/02/07 03:57:34;;;;;;;12.77;2.45;;;4.30;99.90;;;;;;4134431;28;20034;-68
2022/02/07 03:59:35;;;;;;;11.35;2.35;;;4.40;99.90;;;;;;4142572;28;20077;-66
2022/02/07 04:01:36;;;;;;;9.90;2.15;;;4.30;99.90;;;;;;4139564;28;20061;-66
2022/02/07 04:03:37;;;;;;;10.23;2.08;;;4.30;99.90;;;;;;4138688;28;20081;-67
2022/02/07 04:05:50;;;;;;;19.67;3.47;;;4.30;99.90;;;;;;4139472;28;20042;-66
2022/02/07 04:07:51;;;;;;;9.00;2.22;;;4.40;99.90;;;;;;4144868;28;20473;-65
2022/02/07 04:09:55;;;;;;;17.77;2.67;;;4.40;99.90;;;;;;4141880;28;20038;-65
2022/02/07 04:12:06;;;;;;;17.10;2.83;;;4.40;99.90;;;;;;4139380;28;20045;-65
2022/02/07 04:14:07;;;;;;;7.35;2.63;;;4.40;99.90;;;;;;4144319;28;20462;-65
2022/02/07 04:16:07;;;;;;;25.83;3.40;;;4.30;99.90;;;;;;4141381;28;20038;-66
2022/02/07 04:18:12;;;;;;;11.90;2.42;;;4.30;99.90;;;;;;4137354;28;20536;-66
2022/02/07 04:20:13;;;;;;;15.10;2.47;;;4.30;99.90;;;;;;4141250;28;20052;-66
2022/02/07 04:22:13;;;;;;;12.43;2.80;;;4.30;99.90;;;;;;4141189;28;20163;-66
2022/02/07 04:24:14;;;;;;;13.70;2.63;;;4.30;99.90;;;;;;4138986;28;20038;-65
2022/02/07 04:26:15;;;;;;;13.18;2.70;;;4.30;99.90;;;;;;4139042;28;20045;-65
2022/02/07 04:28:17;;;;;;;12.65;2.35;;;4.40;99.90;;;;;;4139571;28;20107;-66
2022/02/07 04:30:18;;;;;;;8.75;2.20;;;4.40;99.90;;;;;;4135187;28;20045;-66
2022/02/07 04:32:18;;;;;;;17.65;2.70;;;4.40;99.90;;;;;;4139300;28;20473;-65
2022/02/07 04:34:19;;;;;;;12.93;2.70;;;4.40;99.90;;;;;;4136620;28;20034;-65
2022/02/07 04:36:20;;;;;;;11.38;2.28;;;4.40;99.90;;;;;;4144512;28;20066;-65
2022/02/07 04:38:20;;;;;;;24.65;3.83;;;4.40;99.90;;;;;;4141034;28;20037;-66
2022/02/07 04:40:21;;;;;;;14.23;2.30;;;4.50;99.90;;;;;;4136272;28;20038;-66
2022/02/07 04:42:24;;;;;;;14.02;3.03;;;4.50;99.90;;;;;;4139933;28;20437;-65
2022/02/07 04:44:34;;;;;;;15.73;2.63;;;4.50;99.90;;;;;;4140679;28;20050;-65
2022/02/07 04:58:24;;;;;;;14.68;2.78;;;4.60;99.90;;;;;;4138636;28;20411;-65
2022/02/07 05:00:51;;;;;;;14.18;2.40;;;4.70;99.90;;;;;;4136534;28;20499;-67
2022/02/07 05:03:01;;;;;;;12.85;2.47;;;4.70;99.90;;;;;;4137003;28;20042;-65
2022/02/07 05:14:08;;;;;;;13.65;2.63;;;4.80;99.90;;;;;;4139008;28;20049;-66
2022/02/07 05:16:18;;;;;;;25.73;3.35;;;4.80;99.90;;;;;;4136246;28;20066;-65
2022/02/07 05:18:20;;;;;;;27.83;3.80;;;4.80;99.90;;;;;;4139141;28;20425;-65
2022/02/07 05:20:21;;;;;;;18.98;3.10;;;4.90;99.90;;;;;;4137636;28;20125;-65
2022/02/07 05:22:21;;;;;;;16.75;3.83;;;4.90;99.90;;;;;;4140777;28;20374;-65
2022/02/07 05:24:22;;;;;;;22.92;3.05;;;4.90;99.90;;;;;;4138361;28;20033;-67
2022/02/07 05:26:23;;;;;;;20.10;3.53;;;4.90;99.90;;;;;;4138976;28;20038;-66
2022/02/07 05:28:24;;;;;;;10.60;2.85;;;4.90;99.90;;;;;;4140899;28;20384;-66
2022/02/07 05:30:24;;;;;;;21.00;3.60;;;4.90;99.90;;;;;;4138212;28;20041;-66
2022/02/07 05:32:25;;;;;;;16.90;3.03;;;4.90;99.90;;;;;;4140735;28;20378;-66
2022/02/07 05:34:26;;;;;;;15.00;3.30;;;5.00;99.90;;;;;;4140347;28;20046;-65
2022/02/07 05:36:27;;;;;;;19.98;3.50;;;5.00;99.90;;;;;;4135826;28;20114;-65
2022/02/07 05:38:29;;;;;;;26.33;3.47;;;5.00;99.90;;;;;;4143042;28;20033;-65
2022/02/07 05:40:46;;;;;;;26.08;3.47;;;5.00;99.90;;;;;;4140461;28;20041;-65
2022/02/07 05:42:46;;;;;;;31.45;4.10;;;5.00;99.90;;;;;;4141471;28;20034;-65
2022/02/07 05:44:48;;;;;;;21.15;3.80;;;5.00;99.90;;;;;;4126610;28;20116;-65
2022/02/07 05:46:48;;;;;;;19.48;4.50;;;5.10;99.90;;;;;;4138302;28;20046;-65
2022/02/07 05:48:49;;;;;;;13.77;3.55;;;5.00;99.90;;;;;;4138581;28;20125;-66
2022/02/07 05:50:49;;;;;;;18.15;3.53;;;5.10;99.90;;;;;;4136202;28;20040;-65
2022/02/07 05:52:50;;;;;;;21.00;3.00;;;5.10;99.90;;;;;;4131310;28;20034;-65
2022/02/07 05:54:50;;;;;;;19.92;3.60;;;5.10;99.90;;;;;;4135732;28;20496;-65
2022/02/07 05:56:51;;;;;;;16.80;3.10;;;5.10;99.90;;;;;;4137121;28;20038;-65
2022/02/07 05:58:52;;;;;;;17.30;3.78;;;5.20;99.90;;;;;;4131466;28;20070;-65
2022/02/07 06:00:54;;;;;;;26.88;3.95;;;5.20;99.90;;;;;;4137389;28;20443;-65
2022/02/07 06:02:54;;;;;;;20.63;3.53;;;5.20;99.90;;;;;;4140227;28;20448;-65
2022/02/07 06:04:55;;;;;;;23.55;4.45;;;5.20;99.90;;;;;;4131209;28;20041;-65
2022/02/07 06:06:56;;;;;;;32.15;4.28;;;5.20;99.90;;;;;;4134638;28;20050;-66
2022/02/07 06:08:57;;;;;;;26.85;3.60;;;5.20;99.90;;;;;;4133951;28;20048;-65
2022/02/07 06:11:06;;;;;;;19.52;2.97;;;5.20;99.90;;;;;;4134386;28;20042;-65
2022/02/07 06:13:12;;;;;;;13.80;3.10;;;5.20;99.90;;;;;;4134946;28;20046;-66
2022/02/07 06:15:13;;;;;;;20.83;3.17;;;5.30;99.90;;;;;;4133054;28;20046;-66
2022/02/07 06:17:13;;;;;;;25.13;4.53;;;5.20;99.90;;;;;;4133131;28;20050;-65
2022/02/07 06:19:14;;;;;;;17.70;2.75;;;5.20;99.90;;;;;;4132319;28;20129;-65
2022/02/07 06:21:16;;;;;;;18.58;3.83;;;5.20;99.90;;;;;;4134358;28;20097;-65
2022/02/07 06:23:16;;;;;;;22.10;3.58;;;5.20;99.90;;;;;;4127466;28;20043;-66
2022/02/07 06:25:17;;;;;;;22.13;3.60;;;5.20;99.90;;;;;;4131481;28;20041;-65
2022/02/07 06:27:18;;;;;;;20.40;3.85;;;5.30;99.90;;;;;;4116835;28;20050;-65
2022/02/07 06:29:19;;;;;;;28.73;3.13;;;5.20;99.90;;;;;;4134596;28;20137;-65
2022/02/07 06:31:20;;;;;;;31.15;4.78;;;5.30;99.90;;;;;;4132459;28;20073;-65
2022/02/07 06:33:20;;;;;;;17.92;3.13;;;5.30;99.90;;;;;;4132303;28;20044;-65
2022/02/07 06:35:21;;;;;;;20.95;3.60;;;5.30;99.90;;;;;;4132685;28;20038;-65
2022/02/07 06:37:22;;;;;;;17.60;3.65;;;5.20;99.90;;;;;;4131164;28;20659;-65
2022/02/07 06:39:22;;;;;;;26.70;5.20;;;5.30;99.90;;;;;;4133555;28;20071;-65
2022/02/07 06:41:23;;;;;;;18.20;3.95;;;5.30;99.90;;;;;;4129636;28;20039;-65
2022/02/07 06:43:24;;;;;;;22.00;3.50;;;5.30;99.90;;;;;;4132967;28;20121;-65
2022/02/07 06:45:25;;;;;;;23.38;3.60;;;5.30;99.90;;;;;;4131070;28;20073;-65
2022/02/07 06:47:28;;;;;;;16.70;3.22;;;5.30;99.90;;;;;;4132183;28;20061;-65
2022/02/07 06:49:28;;;;;;;17.92;2.47;;;5.40;99.90;;;;;;4131916;28;20034;-65
2022/02/07 06:51:29;;;;;;;27.42;4.30;;;5.40;99.90;;;;;;4129035;28;20034;-65
2022/02/07 06:53:29;;;;;;;22.77;4.05;;;5.40;99.90;;;;;;4132084;28;20045;-65
2022/02/07 06:55:30;;;;;;;16.15;2.83;;;5.40;99.90;;;;;;4132013;28;20775;-65
2022/02/07 06:57:31;;;;;;;10.45;2.58;;;5.50;99.90;;;;;;4132583;28;20050;-65
2022/02/07 06:59:39;;;;;;;12.23;2.67;;;5.50;99.90;;;;;;4124705;28;20051;-65
2022/02/07 07:01:39;;;;;;;11.45;2.70;;;5.60;99.90;;;;;;4129258;28;20830;-65
2022/02/07 07:03:44;;;;;;;12.43;2.80;;;5.60;99.90;;;;;;4131603;28;21083;-65
2022/02/07 07:05:45;;;;;;;13.43;3.00;;;5.60;99.90;;;;;;4109084;28;20042;-65
2022/02/07 07:07:46;;;;;;;13.10;2.53;;;5.60;99.90;;;;;;4131914;28;20038;-65
2022/02/07 07:09:48;;;;;;;11.52;2.55;;;5.70;99.90;;;;;;4134232;28;20041;-65
2022/02/07 07:11:48;;;;;;;13.85;3.28;;;5.70;99.90;;;;;;4132507;28;20397;-65
2022/02/07 07:13:54;;;;;;;14.98;2.88;;;5.80;99.90;;;;;;4133204;28;20034;-65
2022/02/07 07:16:14;;;;;;;15.60;3.40;;;5.80;99.90;;;;;;4115060;28;20050;-65
2022/02/07 07:18:17;;;;;;;16.75;3.05;;;5.90;99.90;;;;;;4136409;28;20066;-65
2022/02/07 07:20:18;;;;;;;12.18;2.55;;;5.80;99.90;;;;;;4135776;28;20107;-65
2022/02/07 07:22:18;;;;;;;9.77;2.55;;;5.90;99.90;;;;;;4134291;28;20128;-65
2022/02/07 07:24:19;;;;;;;16.02;2.65;;;5.90;99.90;;;;;;4135954;28;20527;-65
2022/02/07 07:26:23;;;;;;;15.00;2.78;;;6.00;99.90;;;;;;4133486;28;20026;-65
2022/02/07 07:28:26;;;;;;;13.07;2.83;;;6.00;99.90;;;;;;4136679;28;20085;-65
2022/02/07 07:30:30;;;;;;;15.00;2.42;;;6.00;99.90;;;;;;4134625;28;20061;-65
2022/02/07 07:32:32;;;;;;;9.55;2.38;;;6.00;99.90;;;;;;4135478;28;20096;-65
2022/02/07 07:34:33;;;;;;;13.95;2.63;;;6.00;99.90;;;;;;4135664;28;20059;-65
2022/02/07 07:36:33;;;;;;;13.00;2.90;;;6.00;99.90;;;;;;4134495;28;20038;-65
2022/02/07 07:38:34;;;;;;;15.00;3.13;;;6.10;99.90;;;;;;4132505;28;20050;-65
2022/02/07 07:40:35;;;;;;;15.57;3.42;;;6.00;99.90;;;;;;4127452;28;20058;-65
2022/02/07 07:42:36;;;;;;;10.18;2.75;;;6.00;99.90;;;;;;4131808;28;20503;-66
2022/02/07 07:44:38;;;;;;;15.65;3.22;;;6.00;99.90;;;;;;4131015;28;20140;-65
2022/02/07 07:46:39;;;;;;;20.83;3.30;;;6.00;99.90;;;;;;4133965;28;20042;-66
2022/02/07 07:48:46;;;;;;;17.77;3.70;;;5.90;99.90;;;;;;4120702;28;20488;-65
2022/02/07 07:50:59;;;;;;;17.52;3.70;;;5.90;99.90;;;;;;4134957;28;20046;-65
2022/02/07 07:53:10;;;;;;;13.07;2.77;;;5.80;99.90;;;;;;4134831;28;20036;-65
2022/02/07 08:02:14;;;;;;;18.55;3.42;;;5.90;99.90;;;;;;4135208;28;20042;-65
2022/02/07 08:04:17;;;;;;;11.77;2.42;;;6.00;99.90;;;;;;4132912;28;20046;-65
2022/02/07 08:06:26;;;;;;;17.02;3.05;;;6.20;99.90;;;;;;4115056;28;20041;-65
2022/02/07 08:08:33;;;;;;;11.85;2.55;;;6.40;99.90;;;;;;4133007;28;21648;-65
2022/02/07 08:12:53;;;;;;;12.93;3.00;;;6.60;99.90;;;;;;4132724;28;20114;-65
2022/02/07 08:14:55;;;;;;;9.50;2.80;;;6.80;99.90;;;;;;4134313;28;20084;-65
2022/02/07 08:16:56;;;;;;;15.80;3.03;;;6.90;99.90;;;;;;4135549;28;20088;-65
2022/02/07 08:19:06;;;;;;;15.48;3.15;;;7.00;99.90;;;;;;4135175;28;20038;-65
2022/02/07 08:21:06;;;;;;;22.92;3.85;;;7.10;99.90;;;;;;4133266;28;20050;-65
2022/02/07 08:23:09;;;;;;;18.48;3.83;;;7.00;99.90;;;;;;4133737;28;20050;-66
2022/02/07 08:25:09;;;;;;;17.95;3.95;;;7.00;99.90;;;;;;4133771;28;21002;-66
2022/02/07 08:27:10;;;;;;;20.88;3.85;;;6.90;99.90;;;;;;4134323;28;20591;-66
2022/02/07 08:29:11;;;;;;;17.08;3.65;;;6.80;99.90;;;;;;4134676;28;20042;-65
2022/02/07 08:31:12;;;;;;;11.88;2.75;;;6.70;99.90;;;;;;4132950;28;20117;-65
2022/02/07 08:33:12;;;;;;;14.43;3.33;;;6.70;99.90;;;;;;4136519;28;20065;-66
2022/02/07 08:35:13;;;;;;;20.85;4.03;;;6.70;99.90;;;;;;4134250;28;20034;-65
2022/02/07 08:37:14;;;;;;;24.13;6.15;;;6.60;99.90;;;;;;4133684;28;20453;-65
2022/02/07 08:39:15;;;;;;;19.65;4.25;;;6.50;99.90;;;;;;4137340;28;20053;-66
2022/02/07 08:41:15;;;;;;;16.38;3.20;;;6.50;99.90;;;;;;4136992;28;20038;-65
2022/02/07 08:43:16;;;;;;;13.98;3.17;;;6.40;99.90;;;;;;4137674;28;20128;-65
2022/02/07 08:45:18;;;;;;;12.80;3.45;;;6.40;99.90;;;;;;4137042;28;20050;-65
2022/02/07 08:47:18;;;;;;;10.65;2.78;;;6.30;99.90;;;;;;4135655;28;20157;-65
2022/02/07 08:49:20;;;;;;;16.15;3.53;;;6.30;99.90;;;;;;4133925;28;20073;-65
2022/02/07 08:51:20;;;;;;;15.82;2.90;;;6.20;99.90;;;;;;4133341;28;20035;-65
2022/02/07 08:53:23;;;;;;;27.35;4.40;;;6.20;99.90;;;;;;4124611;28;20042;-65
2022/02/07 08:55:32;;;;;;;15.90;3.25;;;6.20;99.90;;;;;;4135527;28;20038;-65
2022/02/07 08:57:38;;;;;;;17.45;3.50;;;6.20;99.90;;;;;;4132610;28;20099;-65
2022/02/07 08:59:54;;;;;;;13.00;3.15;;;6.30;99.90;;;;;;4134089;28;20037;-66
2022/02/07 09:02:18;;;;;;;15.40;3.53;;;6.30;99.90;;;;;;4133167;28;20401;-65
2022/02/07 09:08:25;;;;;;;21.25;4.60;;;6.60;99.90;;;;;;4133088;28;20468;-65
2022/02/07 09:10:26;;;;;;;25.85;4.43;;;6.90;99.90;;;;;;4135310;28;20046;-65
2022/02/07 09:12:26;;;;;;;31.15;4.32;;;7.00;99.90;;;;;;4134873;28;20455;-65
2022/02/07 09:14:27;;;;;;;19.63;3.45;;;7.00;99.90;;;;;;4135476;28;20049;-65
2022/02/07 09:16:31;;;;;;;18.00;3.67;;;7.00;99.90;;;;;;4116202;28;20070;-65
2022/02/07 09:18:31;;;;;;;15.20;3.72;;;6.90;99.90;;;;;;4136726;28;20037;-65
2022/02/07 09:20:33;;;;;;;21.65;4.13;;;7.00;99.90;;;;;;4133399;28;20137;-65
2022/02/07 09:22:33;;;;;;;20.73;4.50;;;7.00;99.90;;;;;;4136926;28;20048;-65
2022/02/07 09:24:34;;;;;;;16.90;3.55;;;7.10;99.90;;;;;;4135220;28;20026;-65
2022/02/07 09:26:34;;;;;;;16.73;3.30;;;7.20;99.90;;;;;;4134275;28;20054;-65
2022/02/07 09:28:35;;;;;;;19.92;4.85;;;7.40;99.90;;;;;;4131786;28;20042;-66
2022/02/07 09:30:36;;;;;;;22.00;4.78;;;7.60;99.90;;;;;;4136785;28;20490;-66
2022/02/07 09:32:36;;;;;;;16.45;3.88;;;7.70;99.90;;;;;;4136326;28;20046;-66
2022/02/07 09:34:37;;;;;;;18.90;4.30;;;7.90;99.90;;;;;;4136029;28;20124;-66
2022/02/07 09:36:37;;;;;;;15.95;3.65;;;8.00;99.90;;;;;;4134400;28;20073;-66
2022/02/07 09:38:38;;;;;;;28.58;3.75;;;8.10;99.90;;;;;;4133685;28;20053;-67
2022/02/07 09:40:39;;;;;;;22.73;4.38;;;8.10;99.90;;;;;;4132482;28;20096;-67
2022/02/07 09:42:43;;;;;;;25.05;4.22;;;8.30;99.90;;;;;;4135582;28;20042;-66
2022/02/07 09:44:53;;;;;;;18.45;4.18;;;8.30;99.90;;;;;;4135936;28;20062;-66
2022/02/07 09:46:54;;;;;;;16.95;3.42;;;8.40;99.90;;;;;;4117069;28;20081;-66
2022/02/07 09:48:54;;;;;;;20.13;4.38;;;8.60;99.90;;;;;;4136398;28;20057;-66
2022/02/07 09:50:55;;;;;;;20.98;4.07;;;8.60;99.90;;;;;;4132521;28;20038;-66
2022/02/07 09:52:56;;;;;;;21.00;4.90;;;8.50;99.90;;;;;;4134653;28;20034;-66
2022/02/07 09:54:56;;;;;;;21.42;3.95;;;8.60;99.90;;;;;;4133054;28;20225;-66
2022/02/07 09:56:58;;;;;;;22.40;4.13;;;8.70;99.90;;;;;;4133770;28;20053;-66
2022/02/07 09:58:58;;;;;;;20.15;4.63;;;8.70;99.90;;;;;;4132617;28;20050;-66
2022/02/07 10:01:01;;;;;;;20.10;4.47;;;8.70;99.90;;;;;;4132151;28;20297;-66
2022/02/07 10:03:22;;;;;;;18.92;3.70;;;8.70;99.90;;;;;;4130140;28;20046;-66
2022/02/07 10:05:26;;;;;;;17.75;3.47;;;8.70;99.90;;;;;;4132351;28;20046;-66
2022/02/07 10:07:55;;;;;;;19.73;3.95;;;8.70;99.90;;;;;;4131379;28;20046;-67
2022/02/07 10:10:25;;;;;;;29.48;4.47;;;8.80;99.90;;;;;;4131950;28;20038;-66
2022/02/07 10:12:37;;;;;;;28.92;4.90;;;8.60;99.90;;;;;;4132080;28;20042;-66
2022/02/07 10:14:55;;;;;;;24.83;3.72;;;8.60;99.90;;;;;;4133777;28;20034;-66
2022/02/07 10:22:05;;;;;;;21.23;3.92;;;8.80;99.90;;;;;;4131268;28;20034;-66
2022/02/07 10:38:42;;;;;;;22.88;3.65;;;8.50;99.90;;;;;;4132933;28;20096;-66
2022/02/07 10:40:38;;;;;;;29.42;4.95;;;8.50;99.90;;;;;;4132942;28;20053;-67
2022/02/07 10:45:18;;;;;;;18.50;3.63;;;8.60;99.90;;;;;;4133093;28;20463;-67
2022/02/07 10:47:29;;;;;;;15.25;3.40;;;8.60;99.90;;;;;;4132105;28;20046;-66
2022/02/07 10:49:30;;;;;;;17.33;3.78;;;8.60;99.90;;;;;;4133416;28;20046;-66
2022/02/07 10:51:32;;;;;;;20.75;4.05;;;8.50;99.90;;;;;;4135117;28;20034;-66
2022/02/07 10:53:38;;;;;;;16.77;3.33;;;8.40;99.90;;;;;;4137136;28;20100;-66
2022/02/07 10:55:41;;;;;;;23.92;4.03;;;8.40;99.90;;;;;;4136150;28;20049;-66
2022/02/07 10:57:44;;;;;;;27.45;4.38;;;8.30;99.90;;;;;;4135268;28;20053;-67
2022/02/07 10:59:45;;;;;;;14.10;3.75;;;8.30;99.90;;;;;;4136914;28;20095;-66
2022/02/07 11:03:52;;;;;;;;;;;8.30;99.90;;;;;;4136324;28;20038;-67
2022/02/07 11:05:59;;;;;;;22.05;3.10;;;8.40;99.90;;;;;;4134833;28;19948;-67
2022/02/07 11:08:17;;;;;;;26.35;3.83;;;8.40;99.90;;;;;;4133756;28;20061;-67
2022/02/07 11:10:27;;;;;;;14.48;3.53;;;8.40;99.90;;;;;;4136674;28;20050;-66
2022/02/07 11:19:04;;;;;;;17.20;3.75;;;8.40;99.90;;;;;;4136365;28;20045;-65
2022/02/07 11:21:19;;;;;;;19.00;4.07;;;8.40;99.90;;;;;;4131927;28;20050;-66
2022/02/07 11:25:42;;;;;;;21.42;3.92;;;8.30;99.90;;;;;;4138680;28;20504;-66
2022/02/07 11:27:53;;;;;;;17.35;3.95;;;8.30;99.90;;;;;;4131607;28;20063;-67
2022/02/07 11:29:54;;;;;;;17.80;3.40;;;8.20;99.90;;;;;;4138460;28;20070;-67
2022/02/07 11:31:55;;;;;;;21.55;3.58;;;8.10;99.90;;;;;;4134999;28;20126;-66
2022/02/07 11:34:06;;;;;;;18.95;3.80;;;8.10;99.90;;;;;;4137824;28;20061;-66
2022/02/07 11:36:20;;;;;;;30.67;5.70;;;8.10;99.90;;;;;;4135584;28;20134;-66
2022/02/07 11:38:21;;;;;;;19.77;4.03;;;8.00;99.90;;;;;;4134781;28;20533;-66
2022/02/07 11:40:43;;;;;;;21.58;3.95;;;8.00;99.90;;;;;;4137205;28;20140;-66
2022/02/07 11:43:07;;;;;;;19.85;4.45;;;8.00;99.90;;;;;;4134049;28;20046;-67
2022/02/07 11:45:07;;;;;;;16.88;3.80;;;7.90;99.90;;;;;;4133334;28;20494;-67
2022/02/07 11:47:32;;;;;;;17.20;3.38;;;7.90;99.90;;;;;;4135302;28;20070;-66
2022/02/07 11:49:39;;;;;;;17.63;3.22;;;7.90;99.90;;;;;;4133680;28;20057;-66
2022/02/07 11:51:40;;;;;;;23.45;4.43;;;7.90;99.90;;;;;;4132198;28;20050;-67
2022/02/07 11:54:02;;;;;;;19.50;3.22;;;8.00;99.90;;;;;;4135103;28;20588;-67
2022/02/07 11:56:10;;;;;;;15.23;3.67;;;8.10;99.90;;;;;;4121658;28;20038;-66
2022/02/07 11:58:25;;;;;;;17.77;3.30;;;8.10;99.90;;;;;;4137019;28;20050;-68
2022/02/07 12:00:35;;;;;;;18.98;3.17;;;8.10;99.90;;;;;;4133468;28;20121;-66
2022/02/07 12:02:37;;;;;;;15.05;3.20;;;8.10;99.90;;;;;;4132990;28;20054;-67
2022/02/07 12:04:44;;;;;;;23.50;4.28;;;8.20;99.90;;;;;;4135172;28;20053;-66
2022/02/07 12:06:45;;;;;;;18.50;3.88;;;8.20;99.90;;;;;;4130569;28;20042;-67
2022/02/07 12:08:47;;;;;;;14.90;3.65;;;8.20;99.90;;;;;;4133268;28;20053;-66
2022/02/07 12:11:06;;;;;;;19.58;3.67;;;8.20;99.90;;;;;;4133303;28;20046;-66
2022/02/07 12:13:39;;;;;;;16.10;3.50;;;8.40;99.90;;;;;;4137362;28;20043;-66
2022/02/07 12:15:50;;;;;;;16.35;2.92;;;8.40;99.90;;;;;;4121270;28;20116;-67
2022/02/07 12:17:57;;;;;;;15.15;2.92;;;8.40;99.90;;;;;;4132821;28;20045;-67
2022/02/07 12:20:06;;;;;;;11.25;2.83;;;8.50;99.90;;;;;;4136868;28;20509;-66
2022/02/07 12:22:17;;;;;;;14.93;3.15;;;8.50;99.90;;;;;;4134706;28;20046;-66
2022/02/07 12:24:18;;;;;;;9.25;2.42;;;8.40;99.90;;;;;;4136194;28;20144;-66
2022/02/07 12:26:18;;;;;;;24.83;3.63;;;8.40;99.90;;;;;;4134766;28;20054;-66
2022/02/07 12:31:35;;;;;;;12.18;2.90;;;8.30;99.90;;;;;;4134166;28;20031;-66
2022/02/07 12:33:05;;;;;;;16.50;3.53;;;8.30;99.90;;;;;;4119811;28;20503;-66
2022/02/07 12:35:06;;;;;;;13.75;2.85;;;8.30;99.90;;;;;;4133108;28;21033;-67
2022/02/07 12:37:07;;;;;;;11.80;2.75;;;8.30;99.90;;;;;;4131756;28;20058;-66
2022/02/07 12:39:10;;;;;;;10.43;2.90;;;8.30;99.90;;;;;;4134248;28;20965;-66
2022/02/07 12:41:13;;;;;;;18.40;3.20;;;8.30;99.90;;;;;;4129923;28;20051;-68
2022/02/07 12:43:14;;;;;;;15.50;3.08;;;8.30;99.90;;;;;;4133436;28;20385;-67
2022/02/07 12:45:15;;;;;;;10.25;2.72;;;8.20;99.90;;;;;;4135396;28;20139;-66
2022/02/07 12:47:15;;;;;;;15.68;3.20;;;8.20;99.90;;;;;;4131897;28;20490;-67
2022/02/07 12:49:22;;;;;;;15.65;3.08;;;8.30;99.90;;;;;;4136304;28;20093;-67
2022/02/07 12:51:28;;;;;;;17.35;3.47;;;8.20;99.90;;;;;;4132053;28;20450;-66
2022/02/07 12:53:30;;;;;;;19.88;3.33;;;8.20;99.90;;;;;;4133296;28;20034;-66
2022/02/07 12:55:31;;;;;;;18.87;3.20;;;8.30;99.90;;;;;;4135501;28;20058;-66
2022/02/07 12:57:37;;;;;;;14.40;3.53;;;8.30;99.90;;;;;;4134175;28;20428;-66
2022/02/07 12:59:49;;;;;;;26.13;3.00;;;8.30;99.90;;;;;;4134293;28;20489;-66
2022/02/07 13:01:49;;;;;;;16.30;3.22;;;8.20;99.90;;;;;;4132008;28;20337;-67
2022/02/07 13:03:57;;;;;;;16.55;2.90;;;8.20;99.90;;;;;;4132390;28;20080;-66